This is the latest recevied weather packets stored in our database for station/object KC1HBM. If no packets are shown the sender has not sent any weather packets the latest 10 day(s).
| Time | Temp. | Humidity | Pressure | Rain* | Wind** | Luminosity | Snow |
|---|---|---|---|---|---|---|---|
| 1777940479 | 11.11° C | 81% | 1004.2 hPa | 0 mm | - | 0 W/m² | - |
| 1777940175 | 11.11° C | 80% | 1004 hPa | 0 mm | - | 0 W/m² | - |
| 1777939873 | 11.67° C | 79% | 1003.8 hPa | 0 mm | - | 0 W/m² | - |
| 1777939570 | 11.67° C | 77% | 1003.9 hPa | 0 mm | - | 0 W/m² | - |
| 1777939268 | 12.22° C | 75% | 1003.9 hPa | 0 mm | - | 0 W/m² | - |
| 1777938964 | 12.78° C | 73% | 1003.6 hPa | 0 mm | - | 0 W/m² | - |
| 1777938660 | 13.33° C | 68% | 1003.7 hPa | 0 mm | - | 0 W/m² | - |
| 1777938357 | 13.89° C | 66% | 1003.6 hPa | 0 mm | - | 0 W/m² | - |
| 1777938055 | 15° C | 63% | 1003.6 hPa | 0 mm | - | 0 W/m² | - |
| 1777937750 | 16.67° C | 58% | 1003.3 hPa | 0 mm | - | 0 W/m² | - |
| 1777937447 | 19.44° C | 41% | 1003.3 hPa | 0 mm | - | 1 W/m² | - |
| 1777937144 | 19.44° C | 41% | 1003.3 hPa | 0 mm | - | 3 W/m² | - |
| 1777936842 | 19.44° C | 41% | 1003.1 hPa | 0 mm | - | 4 W/m² | - |
| 1777936538 | 20° C | 40% | 1003.1 hPa | 0 mm | - | 5 W/m² | - |
| 1777936234 | 20° C | 40% | 1002.8 hPa | 0 mm | - | 7 W/m² | - |
| 1777935930 | 20° C | 40% | 1002.8 hPa | 0 mm | - | 11 W/m² | - |
| 1777935630 | 20° C | 39% | 1002.7 hPa | 0 mm | - | 12 W/m² | - |
| 1777935326 | 20° C | 39% | 1002.7 hPa | 0 mm | - | 12 W/m² | - |
| 1777935023 | 20° C | 40% | 1002.9 hPa | 0 mm | - | 12 W/m² | - |
| 1777934720 | 20.56° C | 38% | 1002.8 hPa | 0 mm | - | 14 W/m² | - |
| 1777934417 | 20° C | 40% | 1002.8 hPa | 0 mm | - | 14 W/m² | - |
| 1777934114 | 20° C | 40% | 1002.6 hPa | 0 mm | - | 13 W/m² | - |
| 1777933810 | 20° C | 40% | 1002.4 hPa | 0 mm | - | 14 W/m² | - |
| 1777933507 | 20.56° C | 38% | 1002.4 hPa | 0 mm | - | 11 W/m² | - |
| 1777933204 | 20.56° C | 38% | 1002.5 hPa | 0 mm | - | 16 W/m² | - |
* Rain latest hour (hover to see other rain measurements)
** Current wind speed in m/s (hover to see current wind gust speed)